createdAt,value
2022-09-21T00:00:57.000Z,81.7
2022-09-21T00:02:12.000Z,81.7
2022-09-21T00:03:27.000Z,81.7
2022-09-21T00:05:59.000Z,81.9
2022-09-21T00:07:15.000Z,82
2022-09-21T00:08:30.000Z,82
2022-09-21T00:09:46.000Z,81.9
2022-09-21T00:11:02.000Z,81.9
2022-09-21T00:12:18.000Z,82.1
2022-09-21T00:13:35.000Z,82
2022-09-21T00:14:51.000Z,81.9
2022-09-21T00:16:07.000Z,81.8
2022-09-21T00:17:23.000Z,82.1
2022-09-21T00:18:39.000Z,82.2
2022-09-21T00:19:56.000Z,82.2
2022-09-21T00:21:12.000Z,82.2
2022-09-21T00:22:28.000Z,82.3
2022-09-21T00:23:44.000Z,82.3
2022-09-21T00:24:59.000Z,82.2
2022-09-21T00:26:16.000Z,82.4
2022-09-21T00:27:32.000Z,82.5
2022-09-21T00:28:48.000Z,82.7
2022-09-21T00:30:04.000Z,82.8
2022-09-21T00:31:20.000Z,83.1
2022-09-21T00:32:37.000Z,83.2
2022-09-21T00:33:52.000Z,83.3
2022-09-21T00:35:07.000Z,83.5
2022-09-21T00:36:22.000Z,83.3
2022-09-21T00:37:37.000Z,83.4
2022-09-21T00:38:54.000Z,83.2
2022-09-21T00:40:10.000Z,83.2
2022-09-21T00:41:26.000Z,83.1
2022-09-21T00:42:42.000Z,83.1
2022-09-21T00:43:58.000Z,83.2
2022-09-21T00:45:15.000Z,83.2
2022-09-21T00:46:31.000Z,83.3
2022-09-21T00:47:47.000Z,83.4
2022-09-21T00:49:03.000Z,83.4
2022-09-21T00:50:19.000Z,83.3
2022-09-21T00:51:36.000Z,83.4
2022-09-21T00:52:52.000Z,83.3
2022-09-21T00:54:07.000Z,83.3
2022-09-21T00:55:23.000Z,83.3
2022-09-21T00:56:39.000Z,83.1
2022-09-21T00:57:56.000Z,83.1
2022-09-21T00:59:12.000Z,83.1
2022-09-21T01:00:28.000Z,83.1
2022-09-21T01:01:44.000Z,83.5
2022-09-21T01:02:59.000Z,83.8
2022-09-21T01:04:15.000Z,83.8
2022-09-21T01:05:31.000Z,83.8
2022-09-21T01:06:46.000Z,84
2022-09-21T01:09:17.000Z,84.1
2022-09-21T01:10:34.000Z,84.1
2022-09-21T01:11:50.000Z,84.1
2022-09-21T01:13:06.000Z,84.2
2022-09-21T01:14:22.000Z,84.4
2022-09-21T01:15:38.000Z,84.5
2022-09-21T01:16:55.000Z,84
2022-09-21T01:18:11.000Z,83.8
2022-09-21T01:19:27.000Z,83.8
2022-09-21T01:20:43.000Z,83.8
2022-09-21T01:21:59.000Z,84.4
2022-09-21T01:23:16.000Z,85.3
2022-09-21T01:24:31.000Z,85.9
2022-09-21T01:25:47.000Z,86.3
2022-09-21T01:27:03.000Z,86.6
2022-09-21T01:28:19.000Z,87
2022-09-21T01:29:36.000Z,87.2
2022-09-21T01:30:52.000Z,87.3
2022-09-21T01:32:08.000Z,87.1
2022-09-21T01:33:24.000Z,86.9
2022-09-21T01:34:39.000Z,87
2022-09-21T01:35:55.000Z,86.9
2022-09-21T01:37:10.000Z,86.7
2022-09-21T01:38:25.000Z,86.5
2022-09-21T01:39:41.000Z,86.6
2022-09-21T01:40:57.000Z,86.7
2022-09-21T01:42:14.000Z,86.6
2022-09-21T01:43:30.000Z,86.5
2022-09-21T01:44:46.000Z,86.4
2022-09-21T01:46:02.000Z,86.4
2022-09-21T01:47:18.000Z,86.3
2022-09-21T01:48:35.000Z,86.1
2022-09-21T01:49:51.000Z,86
2022-09-21T01:51:07.000Z,85.9
2022-09-21T01:52:23.000Z,85.7
2022-09-21T01:53:39.000Z,85.4
2022-09-21T01:54:55.000Z,85
2022-09-21T01:56:11.000Z,84.8
2022-09-21T01:57:27.000Z,84.7
2022-09-21T01:58:43.000Z,84.7
2022-09-21T01:59:59.000Z,84.7
2022-09-21T02:01:15.000Z,84.9
2022-09-21T02:02:32.000Z,85.1
2022-09-21T02:03:47.000Z,85
2022-09-21T02:05:02.000Z,84.9
2022-09-21T02:06:18.000Z,84.9
2022-09-21T02:07:35.000Z,84.7
2022-09-21T02:08:51.000Z,84.6
2022-09-21T02:10:07.000Z,84.6
2022-09-21T02:11:22.000Z,84.8
2022-09-21T02:12:38.000Z,85
2022-09-21T02:13:55.000Z,85
2022-09-21T02:15:11.000Z,85.3
2022-09-21T02:16:27.000Z,85.9
2022-09-21T02:17:43.000Z,86.2
2022-09-21T02:18:59.000Z,86.3
2022-09-21T02:20:15.000Z,86.5
2022-09-21T02:21:32.000Z,86.6
2022-09-21T02:22:48.000Z,86.5
2022-09-21T02:24:04.000Z,86.4
2022-09-21T02:25:20.000Z,86.5
2022-09-21T02:26:36.000Z,87
2022-09-21T02:27:52.000Z,87.4
2022-09-21T02:29:08.000Z,87.8
2022-09-21T02:30:23.000Z,88.4
2022-09-21T02:31:38.000Z,88.4
2022-09-21T02:32:55.000Z,88.5
2022-09-21T02:34:11.000Z,88.6
2022-09-21T02:35:27.000Z,88.9
2022-09-21T02:36:43.000Z,88.8
2022-09-21T02:37:59.000Z,89
2022-09-21T02:39:15.000Z,88.8
2022-09-21T02:40:32.000Z,88.5
2022-09-21T02:41:48.000Z,88
2022-09-21T02:43:04.000Z,87.7
2022-09-21T02:44:20.000Z,87.7
2022-09-21T02:45:36.000Z,87.5
2022-09-21T02:46:53.000Z,87.6
2022-09-21T02:48:08.000Z,87.9
2022-09-21T02:49:24.000Z,87.9
2022-09-21T02:50:40.000Z,87.8
2022-09-21T02:51:56.000Z,87.5
2022-09-21T02:53:13.000Z,87.2
2022-09-21T02:54:29.000Z,87.2
2022-09-21T02:55:45.000Z,87.2
2022-09-21T02:57:00.000Z,87
2022-09-21T02:58:15.000Z,87
2022-09-21T02:59:31.000Z,86.9
2022-09-21T03:00:46.000Z,86.6
2022-09-21T03:03:18.000Z,86.7
2022-09-21T03:04:35.000Z,86.5
2022-09-21T03:05:51.000Z,86.6
2022-09-21T03:07:07.000Z,86.6
2022-09-21T03:08:23.000Z,86.8
2022-09-21T03:09:39.000Z,86.6
2022-09-21T03:10:55.000Z,86.5
2022-09-21T03:12:12.000Z,86.4
2022-09-21T03:13:28.000Z,86.5
2022-09-21T03:14:44.000Z,86.6
2022-09-21T03:16:00.000Z,86.5
2022-09-21T03:17:15.000Z,86.3
2022-09-21T03:18:32.000Z,86.2
2022-09-21T03:19:48.000Z,86
2022-09-21T03:21:04.000Z,86.1
2022-09-21T03:22:20.000Z,86.7
2022-09-21T03:23:36.000Z,87
2022-09-21T03:24:53.000Z,86.6
2022-09-21T03:26:09.000Z,86.7
2022-09-21T03:27:24.000Z,87.3
2022-09-21T03:28:39.000Z,87.7
2022-09-21T03:29:55.000Z,87.8
2022-09-21T03:31:10.000Z,88.2
2022-09-21T03:32:26.000Z,88.1
2022-09-21T03:33:42.000Z,88
2022-09-21T03:34:58.000Z,87.5
2022-09-21T03:36:14.000Z,87
2022-09-21T03:37:31.000Z,86.8
2022-09-21T03:38:47.000Z,86.7
2022-09-21T03:40:03.000Z,86.6
2022-09-21T03:41:19.000Z,86.3
2022-09-21T03:42:35.000Z,86.2
2022-09-21T03:43:52.000Z,86.1
2022-09-21T03:45:08.000Z,86
2022-09-21T03:46:24.000Z,86.6
2022-09-21T03:47:39.000Z,87
2022-09-21T03:48:55.000Z,87.1
2022-09-21T03:50:12.000Z,87.1
2022-09-21T03:51:28.000Z,86.9
2022-09-21T03:52:44.000Z,87
2022-09-21T03:54:00.000Z,86.9
2022-09-21T03:55:16.000Z,87
2022-09-21T03:56:32.000Z,87.1
2022-09-21T03:57:47.000Z,87.1
2022-09-21T03:59:02.000Z,87.2
2022-09-21T04:00:17.000Z,87.3
2022-09-21T04:01:34.000Z,87.3
2022-09-21T04:02:50.000Z,87.3
2022-09-21T04:04:06.000Z,86.9
2022-09-21T04:05:22.000Z,86.8
2022-09-21T04:06:38.000Z,86.8
2022-09-21T04:07:54.000Z,86.5
2022-09-21T04:09:11.000Z,86.2
2022-09-21T04:10:27.000Z,86
2022-09-21T04:11:43.000Z,85.9
2022-09-21T04:12:59.000Z,85.7
2022-09-21T04:14:15.000Z,85.6
2022-09-21T04:15:32.000Z,85.6
2022-09-21T04:16:47.000Z,85.8
2022-09-21T04:18:03.000Z,85.9
2022-09-21T04:19:19.000Z,86.2
2022-09-21T04:20:35.000Z,86.2
2022-09-21T04:21:52.000Z,86
2022-09-21T04:23:08.000Z,86.1
2022-09-21T04:24:24.000Z,85.9
2022-09-21T04:25:39.000Z,85.9
2022-09-21T04:26:54.000Z,86
2022-09-21T04:28:10.000Z,86.3
2022-09-21T04:29:25.000Z,86.2
2022-09-21T04:30:41.000Z,86.1
2022-09-21T04:31:57.000Z,86
2022-09-21T04:33:13.000Z,86
2022-09-21T04:34:30.000Z,86.2
2022-09-21T04:35:46.000Z,86.1
2022-09-21T04:37:02.000Z,86.1
2022-09-21T04:38:18.000Z,86
2022-09-21T04:39:34.000Z,85.9
2022-09-21T04:40:51.000Z,86
2022-09-21T04:42:07.000Z,86.1
2022-09-21T04:44:39.000Z,86.4
2022-09-21T04:45:54.000Z,86.4
2022-09-21T04:47:11.000Z,86.4
2022-09-21T04:48:27.000Z,85.9
2022-09-21T04:49:43.000Z,85.7
2022-09-21T04:50:59.000Z,85.9
2022-09-21T04:52:15.000Z,86.3
2022-09-21T04:53:32.000Z,86.8
2022-09-21T04:54:48.000Z,87
2022-09-21T04:57:19.000Z,86.9
2022-09-21T04:58:34.000Z,87
2022-09-21T04:59:50.000Z,86.9
2022-09-21T05:01:05.000Z,86.9
2022-09-21T05:02:20.000Z,86.8
2022-09-21T05:03:36.000Z,86.6
2022-09-21T05:04:52.000Z,86.8
2022-09-21T05:06:09.000Z,86.6
2022-09-21T05:07:25.000Z,86.5
2022-09-21T05:08:41.000Z,86.5
2022-09-21T05:09:57.000Z,86.7
2022-09-21T05:11:13.000Z,86.9
2022-09-21T05:12:30.000Z,87.1
2022-09-21T05:13:46.000Z,87.3
2022-09-21T05:15:02.000Z,87.4
2022-09-21T05:16:18.000Z,87.5
2022-09-21T05:17:34.000Z,87.1
2022-09-21T05:18:50.000Z,86.7
2022-09-21T05:20:06.000Z,86.7
2022-09-21T05:21:22.000Z,86.9
2022-09-21T05:22:38.000Z,87.1
2022-09-21T05:23:54.000Z,87.2
2022-09-21T05:25:11.000Z,87.5
2022-09-21T05:26:27.000Z,87.7
2022-09-21T05:27:42.000Z,87.7
2022-09-21T05:28:57.000Z,87.5
2022-09-21T05:30:13.000Z,87.4
2022-09-21T05:31:30.000Z,87
2022-09-21T05:32:46.000Z,87
2022-09-21T05:35:18.000Z,87.1
2022-09-21T05:36:34.000Z,86.9
2022-09-21T05:37:51.000Z,86.5
2022-09-21T05:39:07.000Z,86
2022-09-21T05:40:23.000Z,85.7
2022-09-21T05:41:39.000Z,85.7
2022-09-21T05:42:55.000Z,85.7
2022-09-21T05:44:11.000Z,85.7
2022-09-21T05:45:27.000Z,85.8
2022-09-21T05:47:59.000Z,85.3
2022-09-21T05:49:14.000Z,85.7
2022-09-21T05:50:30.000Z,85.7
2022-09-21T05:51:46.000Z,85.5
2022-09-21T05:53:01.000Z,84.9
2022-09-21T05:54:16.000Z,85
2022-09-21T05:55:32.000Z,85
2022-09-21T05:56:49.000Z,85.3
2022-09-21T05:58:05.000Z,84.9
2022-09-21T05:59:21.000Z,85.2
2022-09-21T06:00:37.000Z,85.3
2022-09-21T06:01:53.000Z,85.3
2022-09-21T06:03:09.000Z,84.9
2022-09-21T06:04:26.000Z,85.2
2022-09-21T06:05:42.000Z,85
2022-09-21T06:06:57.000Z,85.2
2022-09-21T06:08:12.000Z,85.2
2022-09-21T06:09:28.000Z,85.3
2022-09-21T06:10:45.000Z,84.6
2022-09-21T06:12:01.000Z,84.4
2022-09-21T06:13:17.000Z,84.2
2022-09-21T06:14:33.000Z,84.2
2022-09-21T06:15:49.000Z,84.2
2022-09-21T06:17:06.000Z,84.3
2022-09-21T06:18:22.000Z,84.1
2022-09-21T06:19:38.000Z,84
2022-09-21T06:20:54.000Z,83.5
2022-09-21T06:22:10.000Z,83.1
2022-09-21T06:23:27.000Z,82.9
2022-09-21T06:24:42.000Z,82.6
2022-09-21T06:25:57.000Z,80.1
2022-09-21T06:27:13.000Z,75.7
2022-09-21T06:28:29.000Z,72.6
2022-09-21T06:29:46.000Z,69.8
2022-09-21T06:31:02.000Z,67
2022-09-21T06:32:18.000Z,64.7
2022-09-21T06:33:33.000Z,63.3
2022-09-21T06:34:48.000Z,61.4
2022-09-21T06:36:04.000Z,59.2
2022-09-21T06:37:19.000Z,57.8
2022-09-21T06:38:35.000Z,56.8
2022-09-21T06:39:51.000Z,55.5
2022-09-21T06:41:07.000Z,55.5
2022-09-21T06:42:24.000Z,54.9
2022-09-21T06:43:40.000Z,54
2022-09-21T06:44:56.000Z,53.3
2022-09-21T06:46:12.000Z,52.5
2022-09-21T06:47:28.000Z,51.9
2022-09-21T06:48:45.000Z,51.7
2022-09-21T06:50:01.000Z,51.3
2022-09-21T06:51:17.000Z,50.6
2022-09-21T06:52:33.000Z,50.1
2022-09-21T06:53:48.000Z,50.1
2022-09-21T06:55:05.000Z,49.7
2022-09-21T06:56:21.000Z,49.3
2022-09-21T06:57:37.000Z,48.5
2022-09-21T06:58:53.000Z,48.3
2022-09-21T07:00:09.000Z,47.7
2022-09-21T07:01:26.000Z,48.2
2022-09-21T07:02:41.000Z,47.7
2022-09-21T07:03:56.000Z,47.4
2022-09-21T07:05:12.000Z,47.3
2022-09-21T07:06:28.000Z,47.2
2022-09-21T07:07:45.000Z,47.8
2022-09-21T07:09:01.000Z,47.3
2022-09-21T07:10:17.000Z,47
2022-09-21T07:11:33.000Z,46.4
2022-09-21T07:12:49.000Z,46.2
2022-09-21T07:14:06.000Z,46.3
2022-09-21T07:15:22.000Z,46.7
2022-09-21T07:16:38.000Z,46.3
2022-09-21T07:17:54.000Z,46.2
2022-09-21T07:19:10.000Z,46
2022-09-21T07:20:26.000Z,45.9
2022-09-21T07:21:42.000Z,46
2022-09-21T07:22:58.000Z,46
2022-09-21T07:24:14.000Z,46.4
2022-09-21T07:25:30.000Z,46
2022-09-21T07:26:47.000Z,45.6
2022-09-21T07:28:03.000Z,45.1
2022-09-21T07:29:18.000Z,44.9
2022-09-21T07:30:33.000Z,45.1
2022-09-21T07:31:49.000Z,45
2022-09-21T07:33:05.000Z,44.4
2022-09-21T07:34:20.000Z,44.5
2022-09-21T07:35:36.000Z,44
2022-09-21T07:36:52.000Z,43.2
2022-09-21T07:38:08.000Z,42.9
2022-09-21T07:39:25.000Z,43
2022-09-21T07:40:41.000Z,43.9
2022-09-21T07:41:57.000Z,43.9
2022-09-21T07:43:13.000Z,42.8
2022-09-21T07:44:29.000Z,42.4
2022-09-21T07:45:46.000Z,42.5
2022-09-21T07:47:02.000Z,42.8
2022-09-21T07:48:18.000Z,42.5
2022-09-21T07:49:34.000Z,42.5
2022-09-21T07:50:49.000Z,42.4
2022-09-21T07:52:06.000Z,41.6
2022-09-21T07:53:22.000Z,42.5
2022-09-21T07:54:38.000Z,42.6
2022-09-21T07:55:54.000Z,42.2
2022-09-21T07:57:10.000Z,41.4
2022-09-21T07:58:27.000Z,41.8
2022-09-21T07:59:42.000Z,42.9
2022-09-21T08:00:57.000Z,43.2
2022-09-21T08:02:12.000Z,42.8
2022-09-21T08:03:27.000Z,42.4
2022-09-21T08:04:44.000Z,42.2
2022-09-21T08:06:00.000Z,43.1
2022-09-21T08:07:16.000Z,42.8
2022-09-21T08:08:32.000Z,41.9
2022-09-21T08:09:48.000Z,41
2022-09-21T08:11:05.000Z,40.2
2022-09-21T08:12:21.000Z,39.5
2022-09-21T08:13:37.000Z,38.8
2022-09-21T08:14:53.000Z,38.3
2022-09-21T08:16:09.000Z,39.3
2022-09-21T08:17:26.000Z,39.5
2022-09-21T08:18:42.000Z,39.6
2022-09-21T08:19:57.000Z,38.8
2022-09-21T08:21:13.000Z,38.7
2022-09-21T08:22:29.000Z,38.4
2022-09-21T08:23:46.000Z,38.9
2022-09-21T08:25:02.000Z,39
2022-09-21T08:26:18.000Z,39.1
2022-09-21T08:27:34.000Z,38.7
2022-09-21T08:28:49.000Z,38.1
2022-09-21T08:30:05.000Z,37.8
2022-09-21T08:31:20.000Z,37.4
2022-09-21T08:32:35.000Z,37.1
2022-09-21T08:33:51.000Z,36.8
2022-09-21T08:35:07.000Z,37.2
2022-09-21T08:36:24.000Z,37.3
2022-09-21T08:37:40.000Z,37.2
2022-09-21T08:38:56.000Z,37.1
2022-09-21T08:40:12.000Z,38.5
2022-09-21T08:41:28.000Z,38.8
2022-09-21T08:42:45.000Z,39.5
2022-09-21T08:44:01.000Z,40.3
2022-09-21T08:45:17.000Z,40.5
2022-09-21T08:46:33.000Z,40.6
2022-09-21T08:47:49.000Z,40.5
2022-09-21T08:49:05.000Z,40.1
2022-09-21T08:50:21.000Z,39.7
2022-09-21T08:51:37.000Z,39.2
2022-09-21T08:52:53.000Z,38.8
2022-09-21T08:54:09.000Z,38.1
2022-09-21T08:55:26.000Z,37.3
2022-09-21T08:56:42.000Z,37
2022-09-21T08:57:57.000Z,38
2022-09-21T08:59:12.000Z,39
2022-09-21T09:00:27.000Z,39.5
2022-09-21T09:01:43.000Z,39.4
2022-09-21T09:02:59.000Z,38.9
2022-09-21T09:04:15.000Z,38
2022-09-21T09:05:31.000Z,37.6
2022-09-21T09:06:47.000Z,36.8
2022-09-21T09:08:04.000Z,36.3
2022-09-21T09:09:20.000Z,37.7
2022-09-21T09:10:36.000Z,38.1
2022-09-21T09:11:52.000Z,38.3
2022-09-21T09:13:08.000Z,38.6
2022-09-21T09:14:25.000Z,38.7
2022-09-21T09:15:41.000Z,39.7
2022-09-21T09:16:57.000Z,40
2022-09-21T09:18:12.000Z,39.8
2022-09-21T09:19:28.000Z,41.2
2022-09-21T09:20:45.000Z,40.6
2022-09-21T09:23:17.000Z,41.5
2022-09-21T09:24:33.000Z,41.4
2022-09-21T09:25:49.000Z,40.9
2022-09-21T09:27:06.000Z,41.5
2022-09-21T09:28:21.000Z,41.3
2022-09-21T09:29:36.000Z,42.5
2022-09-21T09:30:51.000Z,42.6
2022-09-21T09:32:06.000Z,42.7
2022-09-21T09:33:23.000Z,43.2
2022-09-21T09:35:55.000Z,45.4
2022-09-21T09:37:11.000Z,45.9
2022-09-21T09:38:27.000Z,46.3
2022-09-21T09:39:44.000Z,46.3
2022-09-21T09:41:00.000Z,46.3
2022-09-21T09:42:16.000Z,46
2022-09-21T09:43:32.000Z,46.2
2022-09-21T09:44:48.000Z,47.6
2022-09-21T09:46:05.000Z,48
2022-09-21T09:47:21.000Z,48.2
2022-09-21T09:48:36.000Z,47.8
2022-09-21T09:49:52.000Z,47.5
2022-09-21T09:51:08.000Z,48.4
2022-09-21T09:52:25.000Z,48.9
2022-09-21T09:53:41.000Z,50.3
2022-09-21T09:54:57.000Z,50.4
2022-09-21T09:56:13.000Z,50.5
2022-09-21T09:57:29.000Z,49.2
2022-09-21T09:58:45.000Z,48.8
2022-09-21T10:00:00.000Z,47.8
2022-09-21T10:01:16.000Z,47.9
2022-09-21T10:02:31.000Z,48.4
2022-09-21T10:03:46.000Z,48.1
2022-09-21T10:05:03.000Z,47.4
2022-09-21T10:06:19.000Z,47.8
2022-09-21T10:07:35.000Z,48.3
2022-09-21T10:08:51.000Z,47.8
2022-09-21T10:10:07.000Z,47.7
2022-09-21T10:11:24.000Z,47.5
2022-09-21T10:12:40.000Z,47.1
2022-09-21T10:13:56.000Z,46.7
2022-09-21T10:15:12.000Z,47.4
2022-09-21T10:16:28.000Z,47.9
2022-09-21T10:17:45.000Z,48.6
2022-09-21T10:19:01.000Z,49.5
2022-09-21T10:20:16.000Z,49.9
2022-09-21T10:21:32.000Z,50.4
2022-09-21T10:22:48.000Z,50.4
2022-09-21T10:24:05.000Z,50.7
2022-09-21T10:25:21.000Z,51.3
2022-09-21T10:26:37.000Z,51.1
2022-09-21T10:27:53.000Z,50.1
2022-09-21T10:29:08.000Z,49.1
2022-09-21T10:30:24.000Z,48.7
2022-09-21T10:31:40.000Z,48.7
2022-09-21T10:32:56.000Z,48.3
2022-09-21T10:34:12.000Z,48.5
2022-09-21T10:35:28.000Z,48.6
2022-09-21T10:36:45.000Z,48.4
2022-09-21T10:38:01.000Z,49
2022-09-21T10:39:17.000Z,47.9
2022-09-21T10:40:32.000Z,48.9
2022-09-21T10:41:48.000Z,49.3
2022-09-21T10:43:04.000Z,48.4
2022-09-21T10:44:21.000Z,48.2
2022-09-21T10:45:37.000Z,48.1
2022-09-21T10:46:53.000Z,48.1
2022-09-21T10:48:09.000Z,47.8
2022-09-21T10:49:25.000Z,47.3
2022-09-21T10:51:58.000Z,47.8
2022-09-21T10:53:14.000Z,48.6
2022-09-21T10:54:30.000Z,49.5
2022-09-21T10:55:46.000Z,50.3
2022-09-21T10:57:02.000Z,50.4
2022-09-21T10:58:17.000Z,49.9
2022-09-21T10:59:32.000Z,50.1
2022-09-21T11:02:03.000Z,49.6
2022-09-21T11:04:36.000Z,49.2
2022-09-21T11:05:52.000Z,47.8
2022-09-21T11:07:07.000Z,45.5
2022-09-21T11:08:22.000Z,45.9
2022-09-21T11:09:39.000Z,45.9
2022-09-21T11:10:55.000Z,46.3
2022-09-21T11:12:11.000Z,46.6
2022-09-21T11:13:27.000Z,46.1
2022-09-21T11:14:43.000Z,46.1
2022-09-21T11:17:16.000Z,47.7
2022-09-21T11:18:32.000Z,49.1
2022-09-21T11:19:48.000Z,50.1
2022-09-21T11:21:04.000Z,50.7
2022-09-21T11:22:21.000Z,50.9
2022-09-21T11:23:37.000Z,50.6
2022-09-21T11:24:52.000Z,50.8
2022-09-21T11:26:08.000Z,50.9
2022-09-21T11:27:24.000Z,51
2022-09-21T11:28:41.000Z,50.8
2022-09-21T11:29:57.000Z,51
2022-09-21T11:31:13.000Z,51
2022-09-21T11:32:29.000Z,50.8
2022-09-21T11:33:45.000Z,50.5
2022-09-21T11:35:01.000Z,50.3
2022-09-21T11:36:16.000Z,49.9
2022-09-21T11:37:31.000Z,49
2022-09-21T11:38:46.000Z,48.2
2022-09-21T11:40:02.000Z,48.6
2022-09-21T11:41:19.000Z,48.9
2022-09-21T11:42:35.000Z,48.8
2022-09-21T11:43:51.000Z,48.2
2022-09-21T11:45:07.000Z,47.9
2022-09-21T11:46:23.000Z,47.9
2022-09-21T11:47:40.000Z,48.6
2022-09-21T11:48:56.000Z,49.6
2022-09-21T11:50:12.000Z,50.1
2022-09-21T11:51:28.000Z,50.2
2022-09-21T11:52:44.000Z,50.2
2022-09-21T11:54:01.000Z,49.7
2022-09-21T11:55:16.000Z,50.1
2022-09-21T11:56:32.000Z,50.2
2022-09-21T11:57:48.000Z,50.2
2022-09-21T11:59:04.000Z,49.3
2022-09-21T12:00:21.000Z,48.9
2022-09-21T12:01:37.000Z,49.3
2022-09-21T12:02:53.000Z,50.3
2022-09-21T12:04:08.000Z,51.1
2022-09-21T12:05:23.000Z,50.8
2022-09-21T12:07:56.000Z,50.9
2022-09-21T12:09:12.000Z,50.8
2022-09-21T12:10:27.000Z,50.8
2022-09-21T12:11:42.000Z,50.2
2022-09-21T12:12:59.000Z,50.4
2022-09-21T12:14:15.000Z,50.5
2022-09-21T12:15:31.000Z,50.4
2022-09-21T12:16:47.000Z,50.5
2022-09-21T12:18:03.000Z,50
2022-09-21T12:19:20.000Z,50.3
2022-09-21T12:20:36.000Z,50.8
2022-09-21T12:21:52.000Z,51.5
2022-09-21T12:23:08.000Z,52.7
2022-09-21T12:24:24.000Z,53.6
2022-09-21T12:25:40.000Z,53.6
2022-09-21T12:26:57.000Z,53.1
2022-09-21T12:28:12.000Z,52.3
2022-09-21T12:29:28.000Z,51.8
2022-09-21T12:30:44.000Z,51.2
2022-09-21T12:32:00.000Z,50.9
2022-09-21T12:33:17.000Z,49.9
2022-09-21T12:34:33.000Z,49.5
2022-09-21T12:35:49.000Z,49.6
2022-09-21T12:37:04.000Z,50
2022-09-21T12:38:19.000Z,50.1
2022-09-21T12:39:36.000Z,50.1
2022-09-21T12:40:51.000Z,49.6
2022-09-21T12:42:06.000Z,49.7
2022-09-21T12:43:22.000Z,49.8
2022-09-21T12:44:38.000Z,49.8
2022-09-21T12:45:55.000Z,50
2022-09-21T12:47:11.000Z,49.9
2022-09-21T12:48:27.000Z,49.9
2022-09-21T12:49:43.000Z,50
2022-09-21T12:50:59.000Z,49.8
2022-09-21T12:52:16.000Z,50
2022-09-21T12:53:32.000Z,50.1
2022-09-21T12:54:48.000Z,50.1
2022-09-21T12:56:04.000Z,49.7
2022-09-21T12:57:20.000Z,49.5
2022-09-21T12:58:36.141Z,49.7
2022-09-21T12:59:52.000Z,49.6
2022-09-21T13:01:08.000Z,49.5
2022-09-21T13:02:24.000Z,49.2
2022-09-21T13:03:40.000Z,48.7
2022-09-21T13:04:57.000Z,49
2022-09-21T13:06:13.000Z,48.9
2022-09-21T13:07:28.000Z,48.8
2022-09-21T13:08:43.000Z,49.1
2022-09-21T13:11:16.000Z,49
2022-09-21T13:12:31.000Z,48.9
2022-09-21T13:13:46.000Z,49.1
2022-09-21T13:15:02.000Z,48.6
2022-09-21T13:16:18.000Z,48.7
2022-09-21T13:17:35.000Z,49.1
2022-09-21T13:18:51.000Z,49.4
2022-09-21T13:20:07.000Z,49.4
2022-09-21T13:21:23.000Z,49.6
2022-09-21T13:22:39.000Z,49.5
2022-09-21T13:23:56.000Z,49.4
2022-09-21T13:25:12.000Z,49.6
2022-09-21T13:26:28.000Z,49.7
2022-09-21T13:27:44.000Z,49.8
2022-09-21T13:29:00.000Z,50
2022-09-21T13:30:16.000Z,50.1
2022-09-21T13:31:32.000Z,50.2
2022-09-21T13:32:48.000Z,49.8
2022-09-21T13:34:04.000Z,49.9
2022-09-21T13:35:20.000Z,49.9
2022-09-21T13:36:37.000Z,50
2022-09-21T13:37:53.000Z,49.8
2022-09-21T13:39:08.000Z,49.8
2022-09-21T13:40:23.000Z,49.8
2022-09-21T13:41:38.000Z,49.8
2022-09-21T13:42:54.000Z,50.2
2022-09-21T13:44:10.000Z,50.5
2022-09-21T13:45:26.000Z,50.6
2022-09-21T13:46:42.000Z,50.5
2022-09-21T13:47:58.000Z,50.8
2022-09-21T13:49:15.000Z,50.6
2022-09-21T13:50:31.000Z,50.5
2022-09-21T13:51:47.000Z,50
2022-09-21T13:53:03.000Z,49.9
2022-09-21T13:54:19.000Z,49.9
2022-09-21T13:55:36.000Z,50
2022-09-21T13:56:52.000Z,49.6
2022-09-21T13:58:08.000Z,49.5
2022-09-21T13:59:23.000Z,49.6
2022-09-21T14:00:39.000Z,49.9
2022-09-21T14:01:56.000Z,50.3
2022-09-21T14:03:12.000Z,50.2
2022-09-21T14:04:28.000Z,50
2022-09-21T14:05:44.000Z,50.7
2022-09-21T14:07:00.000Z,50.6
2022-09-21T14:08:16.000Z,50.4
2022-09-21T14:09:31.000Z,50.3
2022-09-21T14:10:46.000Z,50.5
2022-09-21T14:12:01.000Z,50.7
2022-09-21T14:14:34.000Z,50.2
2022-09-21T14:15:50.000Z,50.2
2022-09-21T14:17:06.000Z,49.9
2022-09-21T14:18:22.000Z,49.9
2022-09-21T14:19:38.000Z,49.9
2022-09-21T14:20:55.000Z,49.8
2022-09-21T14:22:11.000Z,49.9
2022-09-21T14:23:27.000Z,50.1
2022-09-21T14:24:43.000Z,49.9
2022-09-21T14:25:59.000Z,49.6
2022-09-21T14:27:16.000Z,49.7
2022-09-21T14:28:31.000Z,49.3
2022-09-21T14:29:47.000Z,49
2022-09-21T14:31:03.000Z,49.2
2022-09-21T14:32:19.000Z,49.2
2022-09-21T14:33:36.000Z,49.3
2022-09-21T14:34:52.000Z,49.5
2022-09-21T14:36:08.000Z,49.4
2022-09-21T14:37:24.000Z,49.2
2022-09-21T14:38:39.000Z,49.3
2022-09-21T14:39:55.000Z,49.4
2022-09-21T14:41:10.000Z,49.5
2022-09-21T14:42:25.000Z,49.7
2022-09-21T14:43:41.000Z,50.2
2022-09-21T14:44:57.000Z,49.8
2022-09-21T14:46:14.000Z,49.1
2022-09-21T14:47:30.000Z,49
2022-09-21T14:48:46.000Z,48.9
2022-09-21T14:50:02.000Z,49
2022-09-21T14:51:18.000Z,48.9
2022-09-21T14:52:35.000Z,48.9
2022-09-21T14:53:51.000Z,49.6
2022-09-21T14:55:06.000Z,49.3
2022-09-21T14:56:22.000Z,49.3
2022-09-21T14:57:38.000Z,49.3
2022-09-21T14:58:55.000Z,49.1
2022-09-21T15:00:11.000Z,49.4
2022-09-21T15:01:27.000Z,49.3
2022-09-21T15:02:43.000Z,49.5
2022-09-21T15:03:59.000Z,49.3
2022-09-21T15:05:16.000Z,49.2
2022-09-21T15:06:32.000Z,49.4
2022-09-21T15:07:48.000Z,49.1
2022-09-21T15:09:03.000Z,49
2022-09-21T15:10:19.000Z,49.4
2022-09-21T15:11:35.000Z,49.2
2022-09-21T15:12:50.000Z,49.5
2022-09-21T15:14:06.000Z,49.7
2022-09-21T15:15:22.000Z,49.5
2022-09-21T15:16:38.000Z,49.4
2022-09-21T15:17:55.000Z,49.5
2022-09-21T15:19:11.000Z,49.4
2022-09-21T15:20:27.000Z,49.6
2022-09-21T15:21:43.000Z,49.5
2022-09-21T15:22:59.000Z,49.3
2022-09-21T15:24:16.000Z,49.3
2022-09-21T15:25:32.000Z,49.2
2022-09-21T15:26:48.000Z,49.4
2022-09-21T15:28:04.000Z,49.4
2022-09-21T15:29:19.000Z,49.1
2022-09-21T15:30:36.000Z,49.1
2022-09-21T15:31:52.000Z,49.2
2022-09-21T15:33:08.000Z,49.3
2022-09-21T15:34:24.000Z,49.4
2022-09-21T15:35:40.000Z,49.7
2022-09-21T15:36:56.000Z,49.6
2022-09-21T15:38:12.000Z,49.7
2022-09-21T15:39:27.000Z,49.6
2022-09-21T15:40:42.000Z,49.3
2022-09-21T15:41:57.000Z,49.3
2022-09-21T15:43:14.000Z,49.5
2022-09-21T15:44:30.000Z,49.8
2022-09-21T15:45:46.000Z,50
2022-09-21T15:47:02.000Z,50
2022-09-21T15:48:18.000Z,49.8
2022-09-21T15:49:35.000Z,49.8
2022-09-21T15:50:51.000Z,49.7
2022-09-21T15:52:07.000Z,49.7
2022-09-21T15:53:23.000Z,49.5
2022-09-21T15:55:56.000Z,50
2022-09-21T15:57:12.000Z,49.8
2022-09-21T15:58:27.000Z,49.8
2022-09-21T15:59:43.000Z,50.3
2022-09-21T16:00:59.000Z,50
2022-09-21T16:02:15.000Z,50.6
2022-09-21T16:03:32.000Z,50.8
2022-09-21T16:04:48.000Z,50.9
2022-09-21T16:06:04.000Z,51.2
2022-09-21T16:07:20.000Z,51.2
2022-09-21T16:08:35.000Z,51.2
2022-09-21T16:09:51.000Z,50.9
2022-09-21T16:11:06.000Z,50.9
2022-09-21T16:12:21.000Z,51
2022-09-21T16:13:37.000Z,51.1
2022-09-21T16:14:54.000Z,50.6
2022-09-21T16:16:10.000Z,50.8
2022-09-21T16:17:26.000Z,51.8
2022-09-21T16:18:42.000Z,51.2
2022-09-21T16:19:58.000Z,50.7
2022-09-21T16:21:15.000Z,50.7
2022-09-21T16:22:31.000Z,50.6
2022-09-21T16:23:47.000Z,50.1
2022-09-21T16:25:03.000Z,50.1
2022-09-21T16:26:19.000Z,49.7
2022-09-21T16:27:35.000Z,50
2022-09-21T16:28:51.000Z,50
2022-09-21T16:30:07.000Z,50
2022-09-21T16:31:23.000Z,50.2
2022-09-21T16:32:39.000Z,50.4
2022-09-21T16:33:55.000Z,50.5
2022-09-21T16:35:12.000Z,50.7
2022-09-21T16:36:28.000Z,51
2022-09-21T16:37:43.000Z,51.2
2022-09-21T16:38:58.000Z,51.5
2022-09-21T16:40:14.000Z,51.7
2022-09-21T16:41:30.000Z,52
2022-09-21T16:42:45.000Z,52.4
2022-09-21T16:44:01.000Z,52.3
2022-09-21T16:45:17.000Z,52.5
2022-09-21T16:46:34.000Z,52.6
2022-09-21T16:47:50.000Z,52.6
2022-09-21T16:49:06.000Z,52.5
2022-09-21T16:50:22.000Z,52.8
2022-09-21T16:51:38.000Z,52.9
2022-09-21T16:52:54.000Z,53
2022-09-21T16:54:11.000Z,53.1
2022-09-21T16:55:27.000Z,53.3
2022-09-21T16:56:43.000Z,53.2
2022-09-21T16:57:59.000Z,53.2
2022-09-21T16:59:14.000Z,52.9
2022-09-21T17:00:31.000Z,53
2022-09-21T17:01:47.000Z,53.1
2022-09-21T17:03:03.000Z,52.6
2022-09-21T17:04:19.000Z,52.9
2022-09-21T17:05:35.000Z,53.1
2022-09-21T17:06:52.000Z,53.1
2022-09-21T17:08:07.000Z,53.3
2022-09-21T17:09:22.000Z,54
2022-09-21T17:10:38.000Z,53.9
2022-09-21T17:11:54.000Z,53.9
2022-09-21T17:13:10.000Z,54.2
2022-09-21T17:14:25.000Z,54.4
2022-09-21T17:15:41.000Z,54.6
2022-09-21T17:16:57.000Z,55.8
2022-09-21T17:18:13.000Z,55.1
2022-09-21T17:19:30.000Z,55.2
2022-09-21T17:20:46.000Z,55.2